Time;durP1;ratioP1;P1;durP2;ratioP2;P2;SDS_P1;SDS_P2;PMS_P1;PMS_P2;Temp;Humidity;BMP_temperature;BMP_pressure;BME280_temperature;BME280_humidity;BME280_pressure;Samples;Min_cycle;Max_cycle;Signal;HPM_P1;HPM_P2
2021/04/27 00:00:36;;;;;;;6.35;2.33;;;;;;;;;;1478542;40;20410;-88
2021/04/27 00:01:40;;;;;;;3.05;2.28;;;;;;;;;;1476526;40;20461;-88
2021/04/27 00:02:42;;;;;;;5.82;1.98;;;;;;;;;;1479101;40;20459;-89
2021/04/27 00:03:43;;;;;;;3.55;1.65;;;;;;;;;;1483285;40;20881;-88
2021/04/27 00:04:45;;;;;;;3.53;1.95;;;;;;;;;;1479526;40;20835;-88
2021/04/27 00:05:46;;;;;;;6.78;2.25;;;;;;;;;;1479577;40;20421;-87
2021/04/27 00:06:47;;;;;;;3.45;1.50;;;;;;;;;;1477688;40;20442;-87
2021/04/27 00:07:48;;;;;;;4.88;1.90;;;;;;;;;;1474934;40;20447;-88
2021/04/27 00:08:49;;;;;;;4.88;2.03;;;;;;;;;;1475548;40;20412;-87
2021/04/27 00:09:51;;;;;;;4.60;1.73;;;;;;;;;;1475642;40;20431;-87
2021/04/27 00:10:53;;;;;;;5.43;1.77;;;;;;;;;;1478951;40;20834;-88
2021/04/27 00:11:54;;;;;;;3.65;1.52;;;;;;;;;;1479082;40;20775;-88
2021/04/27 00:12:55;;;;;;;4.43;1.73;;;;;;;;;;1475676;40;20473;-87
2021/04/27 00:13:57;;;;;;;4.75;1.90;;;;;;;;;;1480598;40;20407;-87
2021/04/27 00:14:58;;;;;;;5.35;2.03;;;;;;;;;;1485650;40;20737;-87
2021/04/27 00:15:59;;;;;;;7.45;2.35;;;;;;;;;;1483488;40;20386;-88
2021/04/27 00:17:00;;;;;;;6.07;1.92;;;;;;;;;;1483996;40;20394;-88
2021/04/27 00:18:01;;;;;;;6.80;2.15;;;;;;;;;;1483950;40;20425;-87
2021/04/27 00:19:03;;;;;;;6.68;2.17;;;;;;;;;;1484308;40;20391;-88
2021/04/27 00:20:06;;;;;;;9.57;2.15;;;;;;;;;;1484319;40;20443;-88
2021/04/27 00:21:08;;;;;;;2.78;1.77;;;;;;;;;;1483951;40;20408;-88
2021/04/27 00:22:10;;;;;;;3.72;1.60;;;;;;;;;;1479858;40;20465;-86
2021/04/27 00:23:12;;;;;;;7.22;2.20;;;;;;;;;;1476175;40;20414;-87
2021/04/27 00:24:13;;;;;;;5.63;1.75;;;;;;;;;;1479803;40;20449;-87
2021/04/27 00:25:15;;;;;;;6.03;2.10;;;;;;;;;;1484456;40;20394;-87
2021/04/27 00:26:17;;;;;;;4.53;1.90;;;;;;;;;;1486439;40;20449;-88
2021/04/27 00:27:18;;;;;;;7.30;1.88;;;;;;;;;;1483222;40;20435;-88
2021/04/27 00:28:20;;;;;;;3.78;2.03;;;;;;;;;;1479442;40;20404;-87
2021/04/27 00:29:21;;;;;;;8.57;2.33;;;;;;;;;;1477933;40;20424;-87
2021/04/27 00:30:23;;;;;;;7.25;2.20;;;;;;;;;;1476053;40;20836;-87
2021/04/27 00:31:27;;;;;;;5.25;2.03;;;;;;;;;;1475405;40;20396;-87
2021/04/27 00:32:28;;;;;;;5.68;2.45;;;;;;;;;;1483159;40;20468;-87
2021/04/27 00:33:29;;;;;;;3.95;2.40;;;;;;;;;;1478363;40;20769;-88
2021/04/27 00:34:30;;;;;;;3.65;2.00;;;;;;;;;;1474729;40;20856;-87
2021/04/27 00:35:32;;;;;;;7.53;1.88;;;;;;;;;;1483031;40;20420;-87
2021/04/27 00:36:33;;;;;;;3.83;1.98;;;;;;;;;;1477684;40;20593;-88
2021/04/27 00:37:34;;;;;;;4.80;2.08;;;;;;;;;;1477976;40;20398;-88
2021/04/27 00:38:35;;;;;;;6.20;2.15;;;;;;;;;;1478842;40;20815;-88
2021/04/27 00:39:37;;;;;;;6.18;2.53;;;;;;;;;;1479338;40;20424;-88
2021/04/27 00:40:38;;;;;;;5.82;2.30;;;;;;;;;;1475175;40;20652;-88
2021/04/27 00:41:39;;;;;;;8.32;1.98;;;;;;;;;;1483764;40;20408;-87
2021/04/27 00:42:42;;;;;;;4.40;2.13;;;;;;;;;;1480891;40;20449;-87
2021/04/27 00:43:43;;;;;;;5.30;2.73;;;;;;;;;;1478357;40;20799;-87
2021/04/27 00:44:44;;;;;;;7.85;2.20;;;;;;;;;;1478912;40;20406;-88
2021/04/27 00:45:45;;;;;;;3.10;1.90;;;;;;;;;;1474873;40;20408;-88
2021/04/27 00:46:47;;;;;;;3.75;1.60;;;;;;;;;;1481267;40;20807;-92
2021/04/27 00:47:49;;;;;;;5.40;1.95;;;;;;;;;;1481527;40;20406;-92
2021/04/27 00:48:50;;;;;;;5.38;2.08;;;;;;;;;;1478490;40;20438;-92
2021/04/27 00:49:54;;;;;;;5.78;1.67;;;;;;;;;;1483276;40;20727;-93
2021/04/27 00:50:56;;;;;;;4.85;2.25;;;;;;;;;;1520905;22;20435;-92
2021/04/27 00:51:59;;;;;;;6.28;2.50;;;;;;;;;;1484086;40;20422;-93
2021/04/27 00:53:00;;;;;;;4.80;2.53;;;;;;;;;;1487752;40;20406;-94
2021/04/27 00:54:04;;;;;;;5.53;2.03;;;;;;;;;;1600833;22;20477;-93
2021/04/27 00:55:06;;;;;;;4.07;1.40;;;;;;;;;;1594270;22;20410;-92
2021/04/27 00:56:11;;;;;;;4.70;1.75;;;;;;;;;;1637277;22;20407;-92
2021/04/27 00:57:13;;;;;;;5.47;1.80;;;;;;;;;;1479631;40;20412;-93
2021/04/27 00:58:16;;;;;;;8.88;2.28;;;;;;;;;;1479580;40;20464;-92
2021/04/27 00:59:19;;;;;;;4.05;2.10;;;;;;;;;;1483373;40;20410;-93
2021/04/27 01:00:28;;;;;;;7.57;2.35;;;;;;;;;;1479270;40;20448;-93
2021/04/27 01:01:34;;;;;;;5.47;2.42;;;;;;;;;;1480142;40;20443;-92
2021/04/27 01:02:36;;;;;;;5.55;2.72;;;;;;;;;;1610868;22;21574;-92
2021/04/27 01:03:37;;;;;;;4.63;2.15;;;;;;;;;;1481036;40;20441;-92
2021/04/27 01:04:40;;;;;;;6.40;2.40;;;;;;;;;;1523518;22;20406;-93
2021/04/27 01:05:44;;;;;;;6.22;2.42;;;;;;;;;;1487267;40;20404;-92
2021/04/27 01:06:48;;;;;;;4.80;2.08;;;;;;;;;;1487727;40;20412;-93
2021/04/27 01:07:54;;;;;;;4.47;2.40;;;;;;;;;;1483570;40;20434;-93
2021/04/27 01:09:16;;;;;;;5.57;2.17;;;;;;;;;;1479977;40;20424;-92
2021/04/27 01:10:19;;;;;;;6.95;2.20;;;;;;;;;;1481390;40;20475;-91
2021/04/27 01:12:42;;;;;;;3.30;1.88;;;;;;;;;;1540721;22;20411;-93
2021/04/27 01:13:47;;;;;;;4.65;2.40;;;;;;;;;;1648050;22;20446;-92
2021/04/27 01:14:56;;;;;;;5.75;2.42;;;;;;;;;;1522527;22;20480;-93
2021/04/27 01:15:58;;;;;;;4.40;2.20;;;;;;;;;;1661025;22;20455;-91
2021/04/27 01:17:03;;;;;;;6.22;2.40;;;;;;;;;;1481213;40;20388;-91
2021/04/27 01:18:19;;;;;;;6.93;2.42;;;;;;;;;;1481083;40;20407;-91
2021/04/27 01:19:26;;;;;;;4.88;2.22;;;;;;;;;;1480646;40;20408;-90
2021/04/27 01:20:47;;;;;;;4.28;2.85;;;;;;;;;;1480896;40;20404;-88
2021/04/27 01:21:48;;;;;;;4.50;2.33;;;;;;;;;;1480149;40;20465;-89
2021/04/27 01:23:03;;;;;;;5.75;2.50;;;;;;;;;;1478560;40;20392;-90
2021/04/27 01:24:10;;;;;;;3.35;2.05;;;;;;;;;;1479291;40;20388;-88
2021/04/27 01:25:15;;;;;;;6.00;2.45;;;;;;;;;;1476418;40;20400;-90
2021/04/27 01:26:19;;;;;;;7.07;2.17;;;;;;;;;;1477271;40;20429;-89
2021/04/27 01:27:21;;;;;;;5.53;2.80;;;;;;;;;;1476521;40;20392;-89
2021/04/27 01:28:24;;;;;;;4.82;2.25;;;;;;;;;;1472070;40;20437;-90
2021/04/27 01:29:27;;;;;;;4.70;2.47;;;;;;;;;;1472742;40;20425;-88
2021/04/27 01:30:37;;;;;;;6.30;2.35;;;;;;;;;;1476425;40;20816;-89
2021/04/27 01:31:39;;;;;;;6.57;2.25;;;;;;;;;;1476425;40;20396;-90
2021/04/27 01:32:42;;;;;;;4.55;2.50;;;;;;;;;;1472536;40;20389;-90
2021/04/27 01:33:44;;;;;;;6.57;2.40;;;;;;;;;;1477964;40;20413;-90
2021/04/27 01:34:45;;;;;;;6.78;2.92;;;;;;;;;;1476112;40;20412;-89
2021/04/27 01:35:46;;;;;;;4.25;2.45;;;;;;;;;;1476094;40;20419;-90
2021/04/27 01:36:49;;;;;;;5.13;2.80;;;;;;;;;;1476040;40;20447;-90
2021/04/27 01:37:50;;;;;;;6.85;2.40;;;;;;;;;;1480452;40;20461;-89
2021/04/27 01:38:51;;;;;;;4.28;2.50;;;;;;;;;;1479646;40;20406;-90
2021/04/27 01:39:53;;;;;;;6.38;2.88;;;;;;;;;;1472783;40;20405;-90
2021/04/27 01:40:55;;;;;;;4.50;2.25;;;;;;;;;;1475574;40;20419;-90
2021/04/27 01:42:00;;;;;;;6.55;2.80;;;;;;;;;;1481542;40;20433;-89
2021/04/27 01:43:03;;;;;;;5.38;2.40;;;;;;;;;;1479084;40;20395;-90
2021/04/27 01:44:07;;;;;;;4.57;2.22;;;;;;;;;;1480504;40;20739;-90
2021/04/27 01:45:09;;;;;;;5.57;2.40;;;;;;;;;;1480488;40;20440;-90
2021/04/27 01:46:10;;;;;;;6.85;2.40;;;;;;;;;;1472061;40;20414;-89
2021/04/27 01:47:15;;;;;;;6.70;2.33;;;;;;;;;;1469301;40;20407;-89
2021/04/27 01:48:16;;;;;;;4.63;2.75;;;;;;;;;;1477503;40;20404;-90
2021/04/27 01:49:20;;;;;;;8.27;2.53;;;;;;;;;;1483644;40;20755;-90
2021/04/27 01:50:22;;;;;;;7.10;3.10;;;;;;;;;;1483769;40;20397;-90
2021/04/27 01:51:24;;;;;;;6.57;2.58;;;;;;;;;;1481853;40;20845;-90
2021/04/27 01:52:26;;;;;;;5.95;2.97;;;;;;;;;;1483501;40;20410;-90
2021/04/27 01:53:29;;;;;;;5.43;2.80;;;;;;;;;;1479529;40;20423;-89
2021/04/27 01:54:32;;;;;;;6.30;3.00;;;;;;;;;;1485234;39;20398;-89
2021/04/27 01:55:34;;;;;;;6.07;2.70;;;;;;;;;;1488014;40;20409;-90
2021/04/27 01:56:35;;;;;;;4.80;3.40;;;;;;;;;;1484504;40;20401;-89
2021/04/27 01:57:37;;;;;;;6.85;2.67;;;;;;;;;;1480655;40;20408;-88
2021/04/27 01:58:38;;;;;;;4.68;2.63;;;;;;;;;;1484916;40;20398;-89
2021/04/27 01:59:41;;;;;;;3.42;2.35;;;;;;;;;;1485027;39;20390;-89
2021/04/27 02:00:53;;;;;;;7.03;3.28;;;;;;;;;;1487701;39;20396;-88
2021/04/27 02:01:55;;;;;;;4.55;2.92;;;;;;;;;;1476516;40;20416;-89
2021/04/27 02:02:56;;;;;;;8.17;2.80;;;;;;;;;;1472827;40;20407;-89
2021/04/27 02:03:58;;;;;;;5.25;2.80;;;;;;;;;;1483318;39;20398;-87
2021/04/27 02:04:59;;;;;;;5.55;2.90;;;;;;;;;;1485258;40;20406;-89
2021/04/27 02:06:00;;;;;;;5.63;2.67;;;;;;;;;;1476991;40;20401;-90
2021/04/27 02:07:01;;;;;;;6.03;2.70;;;;;;;;;;1472851;40;20413;-89
2021/04/27 02:08:02;;;;;;;4.97;2.90;;;;;;;;;;1477067;40;20409;-89
2021/04/27 02:09:07;;;;;;;4.80;2.83;;;;;;;;;;1480704;40;20396;-89
2021/04/27 02:10:15;;;;;;;5.95;3.20;;;;;;;;;;1475768;40;20433;-91
2021/04/27 02:11:19;;;;;;;7.07;2.72;;;;;;;;;;1469975;40;20407;-90
2021/04/27 02:12:20;;;;;;;6.18;2.53;;;;;;;;;;1473793;40;20413;-90
2021/04/27 02:13:22;;;;;;;6.53;2.70;;;;;;;;;;1481956;40;20410;-90
2021/04/27 02:14:25;;;;;;;5.40;2.55;;;;;;;;;;1481372;40;20423;-93
2021/04/27 02:15:28;;;;;;;6.05;3.47;;;;;;;;;;1480710;40;20417;-91
2021/04/27 02:16:54;;;;;;;4.13;2.65;;;;;;;;;;1481675;40;20445;-89
2021/04/27 02:18:01;;;;;;;4.05;2.75;;;;;;;;;;1479736;40;20426;-89
2021/04/27 02:19:03;;;;;;;6.82;2.60;;;;;;;;;;1477295;40;20444;-91
2021/04/27 02:20:06;;;;;;;7.43;2.80;;;;;;;;;;1480540;40;20391;-91
2021/04/27 02:21:08;;;;;;;7.22;3.00;;;;;;;;;;1480679;40;20411;-90
2021/04/27 02:22:10;;;;;;;6.60;2.95;;;;;;;;;;1476519;40;20411;-91
2021/04/27 02:23:12;;;;;;;5.22;2.72;;;;;;;;;;1472253;40;20397;-89
2021/04/27 02:24:17;;;;;;;4.43;2.77;;;;;;;;;;1476313;40;20401;-90
2021/04/27 02:25:21;;;;;;;7.33;2.80;;;;;;;;;;1475861;40;20725;-90
2021/04/27 02:26:22;;;;;;;8.93;3.83;;;;;;;;;;1478928;40;20515;-90
2021/04/27 02:27:23;;;;;;;6.65;3.10;;;;;;;;;;1476981;40;20404;-89
2021/04/27 02:28:27;;;;;;;6.18;2.70;;;;;;;;;;1479423;40;20431;-90
2021/04/27 02:29:28;;;;;;;4.60;2.90;;;;;;;;;;1485055;40;20436;-89
2021/04/27 02:30:30;;;;;;;10.25;3.55;;;;;;;;;;1480386;40;20390;-90
2021/04/27 02:31:32;;;;;;;3.38;2.40;;;;;;;;;;1481103;40;20431;-92
2021/04/27 02:32:52;;;;;;;7.43;3.50;;;;;;;;;;1477092;40;20503;-90
2021/04/27 02:33:53;;;;;;;6.63;2.90;;;;;;;;;;1478872;40;20407;-90
2021/04/27 02:34:54;;;;;;;9.63;3.28;;;;;;;;;;1481096;40;20425;-90
2021/04/27 02:35:57;;;;;;;6.65;2.78;;;;;;;;;;1472902;40;20438;-90
2021/04/27 02:36:58;;;;;;;7.28;2.92;;;;;;;;;;1472317;40;20406;-91
2021/04/27 02:37:59;;;;;;;5.45;2.78;;;;;;;;;;1477858;40;20411;-91
2021/04/27 02:39:03;;;;;;;7.95;3.67;;;;;;;;;;1472831;40;20425;-88
2021/04/27 02:40:05;;;;;;;4.55;3.42;;;;;;;;;;1478880;40;20416;-92
2021/04/27 02:41:07;;;;;;;5.72;3.13;;;;;;;;;;1485381;40;20463;-91
2021/04/27 02:42:09;;;;;;;5.95;3.05;;;;;;;;;;1481892;40;20534;-91
2021/04/27 02:43:11;;;;;;;6.57;3.20;;;;;;;;;;1480353;40;20414;-89
2021/04/27 02:44:12;;;;;;;4.75;3.28;;;;;;;;;;1481874;40;20643;-92
2021/04/27 02:45:15;;;;;;;4.45;3.00;;;;;;;;;;1482408;40;20866;-92
2021/04/27 02:46:17;;;;;;;6.65;2.90;;;;;;;;;;1482237;40;20410;-91
2021/04/27 02:47:18;;;;;;;3.33;2.90;;;;;;;;;;1697306;22;20456;-89
2021/04/27 02:49:31;;;;;;;4.50;3.30;;;;;;;;;;1618400;22;20424;-92
2021/04/27 02:50:35;;;;;;;6.45;3.38;;;;;;;;;;2103489;22;20845;-92
2021/04/27 02:51:37;;;;;;;6.43;3.00;;;;;;;;;;1484340;40;20420;-90
2021/04/27 02:52:41;;;;;;;5.13;3.03;;;;;;;;;;1879756;22;20888;-90
2021/04/27 02:53:44;;;;;;;7.30;2.90;;;;;;;;;;1481938;40;20432;-91
2021/04/27 02:54:45;;;;;;;7.35;3.15;;;;;;;;;;1480405;40;20412;-90
2021/04/27 02:55:47;;;;;;;9.07;3.53;;;;;;;;;;1472767;40;20415;-90
2021/04/27 02:56:48;;;;;;;6.25;3.35;;;;;;;;;;1472168;40;20422;-88
2021/04/27 02:57:52;;;;;;;6.85;3.47;;;;;;;;;;1479156;40;20408;-90
2021/04/27 02:58:54;;;;;;;6.20;3.22;;;;;;;;;;1480106;40;20412;-90
2021/04/27 02:59:56;;;;;;;7.20;3.72;;;;;;;;;;1480966;40;20423;-91
2021/04/27 03:00:58;;;;;;;5.03;3.55;;;;;;;;;;1485060;40;20413;-90
2021/04/27 03:02:02;;;;;;;3.30;3.00;;;;;;;;;;1485122;40;20431;-91
2021/04/27 03:03:06;;;;;;;5.65;3.30;;;;;;;;;;1481331;40;20429;-91
2021/04/27 03:04:07;;;;;;;6.00;3.25;;;;;;;;;;1485175;40;20402;-90
2021/04/27 03:05:09;;;;;;;7.57;3.75;;;;;;;;;;1485281;40;20433;-92
2021/04/27 03:06:10;;;;;;;8.07;3.88;;;;;;;;;;1482732;40;20384;-91
2021/04/27 03:07:15;;;;;;;6.40;3.08;;;;;;;;;;1476390;40;20413;-89
2021/04/27 03:08:17;;;;;;;4.93;3.35;;;;;;;;;;1476381;40;20414;-90
2021/04/27 03:09:19;;;;;;;5.38;3.22;;;;;;;;;;1476926;40;20486;-91
2021/04/27 03:10:22;;;;;;;4.03;3.35;;;;;;;;;;1480394;40;20400;-91
2021/04/27 03:11:24;;;;;;;4.65;3.17;;;;;;;;;;1480585;40;20431;-90
2021/04/27 03:12:25;;;;;;;5.25;3.40;;;;;;;;;;1479901;40;20423;-90
2021/04/27 03:13:28;;;;;;;6.00;3.77;;;;;;;;;;1481704;40;20399;-91
2021/04/27 03:14:29;;;;;;;7.57;3.95;;;;;;;;;;1485049;40;20458;-90
2021/04/27 03:15:31;;;;;;;9.23;3.72;;;;;;;;;;1481054;40;20396;-89
2021/04/27 03:16:34;;;;;;;6.93;4.03;;;;;;;;;;1484480;40;20402;-92
2021/04/27 03:17:35;;;;;;;7.07;3.67;;;;;;;;;;1483991;40;20401;-92
2021/04/27 03:18:39;;;;;;;6.97;3.20;;;;;;;;;;1483166;40;20406;-92
2021/04/27 03:19:42;;;;;;;4.50;3.53;;;;;;;;;;1477949;40;20404;-90
2021/04/27 03:20:44;;;;;;;13.00;4.05;;;;;;;;;;1475273;40;20400;-90
2021/04/27 03:21:45;;;;;;;4.30;3.70;;;;;;;;;;1478485;40;20392;-90
2021/04/27 03:22:49;;;;;;;5.07;3.47;;;;;;;;;;1473136;40;20409;-90
2021/04/27 03:23:50;;;;;;;6.55;3.88;;;;;;;;;;1480037;40;20389;-90
2021/04/27 03:24:51;;;;;;;5.55;3.90;;;;;;;;;;1479563;40;20386;-89
2021/04/27 03:25:52;;;;;;;6.40;3.88;;;;;;;;;;1477290;40;20382;-90
2021/04/27 03:26:54;;;;;;;4.97;3.72;;;;;;;;;;1477703;40;20410;-91
2021/04/27 03:27:55;;;;;;;6.53;3.35;;;;;;;;;;1478399;40;20414;-90
2021/04/27 03:28:56;;;;;;;9.73;3.70;;;;;;;;;;1477535;40;20416;-90
2021/04/27 03:29:59;;;;;;;7.43;4.57;;;;;;;;;;1476429;40;20404;-89
2021/04/27 03:31:01;;;;;;;7.07;4.13;;;;;;;;;;1477540;40;20420;-89
2021/04/27 03:32:03;;;;;;;8.93;3.65;;;;;;;;;;1482448;40;20474;-89
2021/04/27 03:33:04;;;;;;;5.60;3.55;;;;;;;;;;1478456;40;20404;-89
2021/04/27 03:34:05;;;;;;;8.10;3.78;;;;;;;;;;1478928;40;20384;-90
2021/04/27 03:35:11;;;;;;;6.35;3.60;;;;;;;;;;1484543;40;20651;-90
2021/04/27 03:36:12;;;;;;;9.70;3.90;;;;;;;;;;1483915;40;20402;-93
2021/04/27 03:37:13;;;;;;;5.45;3.75;;;;;;;;;;1482658;40;20472;-91
2021/04/27 03:38:14;;;;;;;5.25;4.30;;;;;;;;;;1483309;40;20398;-92
2021/04/27 03:39:17;;;;;;;3.92;3.30;;;;;;;;;;1482335;40;20398;-91
2021/04/27 03:40:19;;;;;;;5.22;3.30;;;;;;;;;;1476642;40;20448;-91
2021/04/27 03:41:21;;;;;;;7.03;3.78;;;;;;;;;;1483526;40;20497;-91
2021/04/27 03:42:22;;;;;;;4.97;3.13;;;;;;;;;;1483351;40;20418;-91
2021/04/27 03:43:24;;;;;;;6.13;3.70;;;;;;;;;;1480539;40;20414;-90
2021/04/27 03:44:25;;;;;;;8.95;4.22;;;;;;;;;;1477031;40;20404;-90
2021/04/27 03:45:35;;;;;;;5.50;3.33;;;;;;;;;;1471166;40;20414;-88
2021/04/27 03:46:38;;;;;;;7.85;3.03;;;;;;;;;;1477846;40;20392;-90
2021/04/27 03:47:39;;;;;;;7.40;3.45;;;;;;;;;;1476976;40;20481;-89
2021/04/27 03:48:43;;;;;;;6.82;3.67;;;;;;;;;;1481099;40;20410;-91
2021/04/27 03:49:46;;;;;;;6.00;3.67;;;;;;;;;;1480891;40;20537;-87
2021/04/27 03:50:48;;;;;;;10.23;4.45;;;;;;;;;;1479764;40;20395;-88
2021/04/27 03:51:49;;;;;;;7.00;3.55;;;;;;;;;;1480040;40;20403;-89
2021/04/27 03:52:50;;;;;;;6.88;3.75;;;;;;;;;;1480000;40;20714;-88
2021/04/27 03:53:53;;;;;;;6.40;3.83;;;;;;;;;;1476074;40;20407;-88
2021/04/27 03:54:54;;;;;;;4.95;3.42;;;;;;;;;;1480350;40;20434;-88
2021/04/27 03:55:58;;;;;;;5.03;3.17;;;;;;;;;;1471076;40;20409;-89
2021/04/27 03:56:59;;;;;;;5.47;3.63;;;;;;;;;;1468384;40;20411;-86
2021/04/27 03:58:00;;;;;;;6.93;3.30;;;;;;;;;;1472318;40;20398;-88
2021/04/27 03:59:02;;;;;;;4.63;3.63;;;;;;;;;;1472190;40;20412;-88
2021/04/27 04:00:04;;;;;;;9.85;3.67;;;;;;;;;;1471961;40;20441;-87
2021/04/27 04:01:06;;;;;;;7.90;3.90;;;;;;;;;;1477968;40;20449;-86
2021/04/27 04:02:07;;;;;;;7.75;3.58;;;;;;;;;;1480718;40;20440;-87
2021/04/27 04:03:08;;;;;;;7.88;3.70;;;;;;;;;;1476292;40;20424;-87
2021/04/27 04:04:10;;;;;;;4.63;3.30;;;;;;;;;;1476878;40;20801;-87
2021/04/27 04:05:12;;;;;;;4.40;3.40;;;;;;;;;;1473693;40;20815;-87
2021/04/27 04:06:13;;;;;;;7.53;3.55;;;;;;;;;;1480295;40;20410;-85
2021/04/27 04:07:15;;;;;;;6.75;3.90;;;;;;;;;;1479462;40;20414;-87
2021/04/27 04:08:16;;;;;;;7.90;3.50;;;;;;;;;;1479160;40;20398;-87
2021/04/27 04:09:17;;;;;;;6.15;3.38;;;;;;;;;;1479438;40;20671;-85
2021/04/27 04:10:19;;;;;;;5.25;3.63;;;;;;;;;;1479379;40;20499;-87
2021/04/27 04:11:20;;;;;;;4.68;3.47;;;;;;;;;;1477385;40;20394;-87
2021/04/27 04:12:22;;;;;;;7.60;3.10;;;;;;;;;;1479279;40;20418;-88
2021/04/27 04:13:23;;;;;;;6.20;3.80;;;;;;;;;;1475405;40;20416;-88
2021/04/27 04:14:24;;;;;;;5.18;2.95;;;;;;;;;;1472578;40;20420;-88
2021/04/27 04:15:28;;;;;;;6.18;3.42;;;;;;;;;;1479036;40;20414;-87
2021/04/27 04:16:29;;;;;;;6.45;3.42;;;;;;;;;;1474679;40;20400;-87
2021/04/27 04:17:30;;;;;;;5.20;3.40;;;;;;;;;;1477746;40;20397;-87
2021/04/27 04:18:33;;;;;;;6.00;3.55;;;;;;;;;;1483589;40;20405;-87
2021/04/27 04:19:36;;;;;;;5.03;3.55;;;;;;;;;;1478706;40;20499;-88
2021/04/27 04:20:37;;;;;;;7.82;3.58;;;;;;;;;;1481271;40;20408;-88
2021/04/27 04:21:39;;;;;;;5.57;3.10;;;;;;;;;;1479396;40;20410;-87
2021/04/27 04:22:40;;;;;;;5.05;3.40;;;;;;;;;;1475273;40;20396;-86
2021/04/27 04:23:42;;;;;;;8.10;3.58;;;;;;;;;;1474752;40;20485;-86
2021/04/27 04:24:44;;;;;;;5.75;3.30;;;;;;;;;;1474568;40;20411;-87
2021/04/27 04:25:45;;;;;;;5.95;3.13;;;;;;;;;;1473423;40;20814;-88
2021/04/27 04:26:46;;;;;;;5.13;2.97;;;;;;;;;;1475079;40;20477;-88
2021/04/27 04:27:51;;;;;;;6.00;3.00;;;;;;;;;;1476909;40;20410;-87
2021/04/27 04:28:52;;;;;;;7.47;3.38;;;;;;;;;;1475779;40;20399;-87
2021/04/27 04:29:55;;;;;;;7.15;3.63;;;;;;;;;;1480524;40;20480;-87
2021/04/27 04:30:56;;;;;;;5.88;3.53;;;;;;;;;;1480032;40;20406;-86
2021/04/27 04:32:01;;;;;;;7.20;4.10;;;;;;;;;;1473250;40;20405;-88
2021/04/27 04:33:05;;;;;;;4.53;3.00;;;;;;;;;;1468421;40;20480;-89
2021/04/27 04:34:06;;;;;;;3.65;2.97;;;;;;;;;;1480430;40;20481;-86
2021/04/27 04:35:08;;;;;;;7.43;2.95;;;;;;;;;;1478628;40;20430;-89
2021/04/27 04:36:09;;;;;;;5.40;2.90;;;;;;;;;;1478691;40;20396;-88
2021/04/27 04:37:11;;;;;;;3.95;3.05;;;;;;;;;;1478824;40;20472;-88
2021/04/27 04:38:14;;;;;;;5.65;2.83;;;;;;;;;;1478635;40;20451;-86
2021/04/27 04:39:15;;;;;;;5.35;3.10;;;;;;;;;;1479762;40;20470;-88
2021/04/27 04:40:16;;;;;;;5.25;3.30;;;;;;;;;;1476227;40;20405;-87
2021/04/27 04:41:17;;;;;;;5.25;3.42;;;;;;;;;;1478859;40;20816;-87
2021/04/27 04:42:18;;;;;;;9.30;3.73;;;;;;;;;;1480063;40;20401;-87
2021/04/27 04:43:19;;;;;;;5.43;3.20;;;;;;;;;;1478966;40;20444;-86
2021/04/27 04:44:20;;;;;;;9.20;3.10;;;;;;;;;;1475109;40;20413;-87
2021/04/27 04:45:25;;;;;;;11.48;3.65;;;;;;;;;;1478213;40;20469;-86
2021/04/27 04:46:26;;;;;;;8.27;3.67;;;;;;;;;;1476525;40;20408;-86
2021/04/27 04:47:27;;;;;;;8.75;3.50;;;;;;;;;;1477687;40;20405;-86
2021/04/27 04:48:28;;;;;;;4.07;3.10;;;;;;;;;;1476611;40;20415;-86
2021/04/27 04:49:30;;;;;;;6.45;3.17;;;;;;;;;;1472043;40;20504;-86
2021/04/27 04:50:33;;;;;;;4.10;2.67;;;;;;;;;;1468433;40;20410;-87
2021/04/27 04:51:34;;;;;;;5.65;3.17;;;;;;;;;;1476202;40;20424;-87
2021/04/27 04:52:35;;;;;;;9.63;3.47;;;;;;;;;;1475788;40;20416;-89
2021/04/27 04:53:36;;;;;;;5.90;3.67;;;;;;;;;;1470778;40;20417;-87
2021/04/27 04:54:38;;;;;;;4.15;3.35;;;;;;;;;;1471241;40;20421;-84
2021/04/27 04:55:39;;;;;;;6.63;3.20;;;;;;;;;;1475686;40;20478;-86
2021/04/27 04:56:41;;;;;;;4.93;3.38;;;;;;;;;;1470986;40;20398;-87
2021/04/27 04:57:42;;;;;;;4.38;3.33;;;;;;;;;;1465494;40;20711;-85
2021/04/27 04:58:44;;;;;;;5.60;3.33;;;;;;;;;;1468994;40;20413;-87
2021/04/27 04:59:45;;;;;;;5.28;3.67;;;;;;;;;;1479185;40;20687;-86
2021/04/27 05:00:46;;;;;;;6.70;3.25;;;;;;;;;;1479199;40;20407;-87
2021/04/27 05:01:50;;;;;;;3.08;2.72;;;;;;;;;;1471221;40;20406;-87
2021/04/27 05:02:52;;;;;;;4.95;3.53;;;;;;;;;;1474968;40;20671;-85
2021/04/27 05:03:55;;;;;;;6.28;3.25;;;;;;;;;;1474824;40;20812;-87
2021/04/27 05:04:56;;;;;;;4.65;2.78;;;;;;;;;;1478123;40;20853;-87
2021/04/27 05:05:58;;;;;;;5.38;3.08;;;;;;;;;;1474690;40;20420;-86
2021/04/27 05:07:04;;;;;;;8.27;3.20;;;;;;;;;;1475324;40;20415;-87
2021/04/27 05:08:12;;;;;;;6.28;3.03;;;;;;;;;;1475457;40;20396;-88
2021/04/27 05:09:13;;;;;;;7.20;3.20;;;;;;;;;;1475455;40;20471;-88
2021/04/27 05:10:16;;;;;;;6.50;3.72;;;;;;;;;;1478912;40;20425;-87
2021/04/27 05:11:19;;;;;;;7.18;3.47;;;;;;;;;;1476533;40;20386;-88
2021/04/27 05:12:21;;;;;;;3.85;3.25;;;;;;;;;;1474657;40;20420;-90
2021/04/27 05:13:22;;;;;;;6.35;3.42;;;;;;;;;;1479865;40;20398;-88
2021/04/27 05:14:24;;;;;;;6.93;3.95;;;;;;;;;;1479737;40;20409;-90
2021/04/27 05:15:25;;;;;;;6.43;3.50;;;;;;;;;;1478867;40;20426;-88
2021/04/27 05:16:27;;;;;;;6.82;3.40;;;;;;;;;;1479656;40;20393;-89
2021/04/27 05:17:30;;;;;;;4.78;3.55;;;;;;;;;;1475816;40;20447;-87
2021/04/27 05:18:33;;;;;;;6.55;3.53;;;;;;;;;;1475122;40;20418;-88
2021/04/27 05:19:35;;;;;;;6.75;3.85;;;;;;;;;;1476884;40;20450;-87
2021/04/27 05:20:37;;;;;;;7.43;3.70;;;;;;;;;;1479033;40;20399;-88
2021/04/27 05:21:40;;;;;;;5.68;3.05;;;;;;;;;;1479772;40;20412;-87
2021/04/27 05:22:43;;;;;;;8.63;3.83;;;;;;;;;;1483820;40;20408;-88
2021/04/27 05:23:45;;;;;;;7.13;3.47;;;;;;;;;;1476953;40;20449;-89
2021/04/27 05:24:47;;;;;;;4.90;4.30;;;;;;;;;;1472903;40;20437;-88
2021/04/27 05:25:50;;;;;;;9.93;3.57;;;;;;;;;;1479315;40;20410;-88
2021/04/27 05:26:54;;;;;;;5.95;3.25;;;;;;;;;;1481284;40;20501;-88
2021/04/27 05:27:56;;;;;;;8.25;4.03;;;;;;;;;;1473540;40;20394;-88
2021/04/27 05:28:59;;;;;;;4.05;3.72;;;;;;;;;;1471517;40;20521;-88
2021/04/27 05:30:00;;;;;;;8.65;3.70;;;;;;;;;;1475269;40;20431;-88
2021/04/27 05:31:02;;;;;;;6.25;3.25;;;;;;;;;;1475092;40;20392;-88
2021/04/27 05:32:08;;;;;;;7.13;3.53;;;;;;;;;;1475899;40;20408;-88
2021/04/27 05:33:11;;;;;;;4.13;3.40;;;;;;;;;;1481454;40;20439;-87
2021/04/27 05:34:14;;;;;;;5.13;3.22;;;;;;;;;;1476940;40;20407;-88
2021/04/27 05:35:15;;;;;;;7.38;3.78;;;;;;;;;;1474255;40;20437;-88
2021/04/27 05:36:17;;;;;;;5.50;3.17;;;;;;;;;;1479164;40;20497;-89
2021/04/27 05:37:20;;;;;;;5.70;3.45;;;;;;;;;;1480087;40;20403;-87
2021/04/27 05:38:21;;;;;;;7.45;3.65;;;;;;;;;;1478515;40;20400;-88
2021/04/27 05:39:24;;;;;;;4.07;3.17;;;;;;;;;;1478574;40;20415;-88
2021/04/27 05:40:27;;;;;;;5.45;3.28;;;;;;;;;;1478748;40;20448;-87
2021/04/27 05:41:28;;;;;;;6.10;3.35;;;;;;;;;;1477121;40;20413;-88
2021/04/27 05:42:29;;;;;;;5.85;3.60;;;;;;;;;;1479314;40;20412;-88
2021/04/27 05:43:30;;;;;;;5.50;3.03;;;;;;;;;;1477251;40;20404;-87
2021/04/27 05:44:32;;;;;;;6.38;3.30;;;;;;;;;;1477272;40;20400;-89
2021/04/27 05:45:33;;;;;;;8.65;3.67;;;;;;;;;;1480828;40;20406;-88
2021/04/27 05:46:35;;;;;;;3.83;3.10;;;;;;;;;;1481142;40;20425;-87
2021/04/27 05:47:37;;;;;;;7.72;3.90;;;;;;;;;;1480959;40;20454;-88
2021/04/27 05:48:39;;;;;;;7.80;3.45;;;;;;;;;;1476904;40;20401;-87
2021/04/27 05:49:40;;;;;;;4.57;3.63;;;;;;;;;;1476552;40;20415;-87
2021/04/27 05:50:41;;;;;;;7.38;3.35;;;;;;;;;;1476089;40;20408;-87
2021/04/27 05:51:42;;;;;;;5.13;3.38;;;;;;;;;;1477107;40;20412;-88
2021/04/27 05:52:43;;;;;;;6.15;3.38;;;;;;;;;;1478232;40;20869;-86
2021/04/27 05:53:44;;;;;;;6.05;3.83;;;;;;;;;;1482429;40;20406;-86
2021/04/27 05:54:46;;;;;;;6.45;3.70;;;;;;;;;;1482729;40;20442;-86
2021/04/27 05:55:47;;;;;;;6.85;3.75;;;;;;;;;;1483579;40;20455;-87
2021/04/27 05:56:48;;;;;;;5.35;3.30;;;;;;;;;;1482586;40;20405;-87
2021/04/27 05:57:50;;;;;;;5.80;3.60;;;;;;;;;;1482028;40;20390;-87
2021/04/27 05:58:51;;;;;;;4.20;3.53;;;;;;;;;;1483724;40;20409;-87
2021/04/27 05:59:53;;;;;;;5.25;3.33;;;;;;;;;;1479589;40;20392;-86
2021/04/27 06:00:54;;;;;;;6.97;4.00;;;;;;;;;;1478437;40;20411;-88
2021/04/27 06:02:06;;;;;;;5.43;3.60;;;;;;;;;;1477180;40;20456;-88
2021/04/27 06:03:07;;;;;;;3.45;2.95;;;;;;;;;;1477038;40;20467;-87
2021/04/27 06:04:08;;;;;;;8.38;3.50;;;;;;;;;;1480488;40;20400;-88
2021/04/27 06:05:13;;;;;;;5.03;3.35;;;;;;;;;;1483990;40;20402;-88
2021/04/27 06:06:14;;;;;;;5.95;3.38;;;;;;;;;;1477132;40;20455;-87
2021/04/27 06:07:16;;;;;;;4.30;3.30;;;;;;;;;;1477067;40;20397;-89
2021/04/27 06:08:17;;;;;;;5.47;3.88;;;;;;;;;;1477010;40;20423;-87
2021/04/27 06:09:18;;;;;;;4.50;3.72;;;;;;;;;;1480874;40;20476;-88
2021/04/27 06:10:19;;;;;;;5.97;3.67;;;;;;;;;;1474501;40;20397;-86
2021/04/27 06:11:21;;;;;;;6.88;4.00;;;;;;;;;;1472826;40;20390;-86
2021/04/27 06:12:22;;;;;;;4.85;4.05;;;;;;;;;;1476595;40;20408;-87
2021/04/27 06:13:24;;;;;;;9.77;3.70;;;;;;;;;;1478655;40;20721;-87
2021/04/27 06:14:25;;;;;;;4.85;3.28;;;;;;;;;;1476737;40;20406;-84
2021/04/27 06:15:26;;;;;;;5.28;3.47;;;;;;;;;;1480619;40;20703;-87
2021/04/27 06:16:27;;;;;;;5.93;3.78;;;;;;;;;;1480648;40;20874;-86
2021/04/27 06:17:30;;;;;;;3.97;3.53;;;;;;;;;;1475173;40;20665;-86